sensor_id;sensor_type;location;lat;lon;timestamp;P1;durP1;ratioP1;P2;durP2;ratioP2
43184;SDS011;28803;52.308;19.096;2022-08-24T00:00:36;7.03;;;4.20;;
43184;SDS011;28803;52.308;19.096;2022-08-24T00:03:05;9.95;;;4.60;;
43184;SDS011;28803;52.308;19.096;2022-08-24T00:05:38;7.68;;;4.68;;
43184;SDS011;28803;52.308;19.096;2022-08-24T00:08:05;5.50;;;4.05;;
43184;SDS011;28803;52.308;19.096;2022-08-24T00:10:32;7.32;;;4.07;;
43184;SDS011;28803;52.308;19.096;2022-08-24T00:12:59;6.53;;;4.53;;
43184;SDS011;28803;52.308;19.096;2022-08-24T00:15:26;8.30;;;5.40;;
43184;SDS011;28803;52.308;19.096;2022-08-24T00:17:53;7.85;;;4.65;;
43184;SDS011;28803;52.308;19.096;2022-08-24T00:20:20;9.10;;;5.50;;
43184;SDS011;28803;52.308;19.096;2022-08-24T00:22:47;7.90;;;4.63;;
43184;SDS011;28803;52.308;19.096;2022-08-24T00:25:15;7.68;;;5.50;;
43184;SDS011;28803;52.308;19.096;2022-08-24T00:27:45;8.45;;;5.72;;
43184;SDS011;28803;52.308;19.096;2022-08-24T00:30:13;8.68;;;5.55;;
43184;SDS011;28803;52.308;19.096;2022-08-24T00:32:43;9.55;;;6.43;;
43184;SDS011;28803;52.308;19.096;2022-08-24T00:35:13;9.35;;;6.18;;
43184;SDS011;28803;52.308;19.096;2022-08-24T00:37:41;8.93;;;5.72;;
43184;SDS011;28803;52.308;19.096;2022-08-24T00:40:11;9.30;;;6.00;;
43184;SDS011;28803;52.308;19.096;2022-08-24T00:42:44;12.73;;;6.30;;
43184;SDS011;28803;52.308;19.096;2022-08-24T00:45:13;9.70;;;6.88;;
43184;SDS011;28803;52.308;19.096;2022-08-24T00:47:43;6.55;;;5.05;;
43184;SDS011;28803;52.308;19.096;2022-08-24T00:50:18;8.93;;;5.70;;
43184;SDS011;28803;52.308;19.096;2022-08-24T00:52:54;7.35;;;5.50;;
43184;SDS011;28803;52.308;19.096;2022-08-24T00:55:27;8.75;;;5.55;;
43184;SDS011;28803;52.308;19.096;2022-08-24T00:58:02;9.55;;;6.43;;
43184;SDS011;28803;52.308;19.096;2022-08-24T01:00:44;11.85;;;7.13;;
43184;SDS011;28803;52.308;19.096;2022-08-24T01:03:15;11.05;;;8.00;;
43184;SDS011;28803;52.308;19.096;2022-08-24T01:05:42;12.20;;;8.00;;
43184;SDS011;28803;52.308;19.096;2022-08-24T01:08:11;10.90;;;7.35;;
43184;SDS011;28803;52.308;19.096;2022-08-24T01:10:41;12.98;;;8.82;;
43184;SDS011;28803;52.308;19.096;2022-08-24T01:13:11;12.85;;;9.27;;
43184;SDS011;28803;52.308;19.096;2022-08-24T01:15:40;14.02;;;9.18;;
43184;SDS011;28803;52.308;19.096;2022-08-24T01:18:12;20.25;;;11.10;;
43184;SDS011;28803;52.308;19.096;2022-08-24T01:21:13;19.17;;;10.70;;
43184;SDS011;28803;52.308;19.096;2022-08-24T01:23:45;24.35;;;11.52;;
43184;SDS011;28803;52.308;19.096;2022-08-24T01:26:20;17.42;;;10.30;;
43184;SDS011;28803;52.308;19.096;2022-08-24T01:29:10;17.60;;;10.60;;
43184;SDS011;28803;52.308;19.096;2022-08-24T01:31:57;18.88;;;9.88;;
43184;SDS011;28803;52.308;19.096;2022-08-24T01:34:25;16.65;;;9.75;;
43184;SDS011;28803;52.308;19.096;2022-08-24T01:36:54;17.98;;;9.77;;
43184;SDS011;28803;52.308;19.096;2022-08-24T01:39:28;16.00;;;9.02;;
43184;SDS011;28803;52.308;19.096;2022-08-24T01:41:56;14.40;;;8.75;;
43184;SDS011;28803;52.308;19.096;2022-08-24T01:44:24;16.67;;;9.52;;
43184;SDS011;28803;52.308;19.096;2022-08-24T01:46:54;13.52;;;8.73;;
43184;SDS011;28803;52.308;19.096;2022-08-24T01:49:24;15.50;;;8.77;;
43184;SDS011;28803;52.308;19.096;2022-08-24T01:51:54;11.25;;;7.60;;
43184;SDS011;28803;52.308;19.096;2022-08-24T01:54:23;14.68;;;8.13;;
43184;SDS011;28803;52.308;19.096;2022-08-24T01:56:50;12.57;;;7.70;;
43184;SDS011;28803;52.308;19.096;2022-08-24T01:59:19;11.52;;;8.05;;
43184;SDS011;28803;52.308;19.096;2022-08-24T02:01:52;13.75;;;8.38;;
43184;SDS011;28803;52.308;19.096;2022-08-24T02:04:23;13.23;;;8.68;;
43184;SDS011;28803;52.308;19.096;2022-08-24T02:06:51;15.25;;;8.48;;
43184;SDS011;28803;52.308;19.096;2022-08-24T02:09:19;14.48;;;8.27;;
43184;SDS011;28803;52.308;19.096;2022-08-24T02:11:47;14.05;;;8.13;;
43184;SDS011;28803;52.308;19.096;2022-08-24T02:14:15;15.13;;;8.27;;
43184;SDS011;28803;52.308;19.096;2022-08-24T02:16:45;15.88;;;9.55;;
43184;SDS011;28803;52.308;19.096;2022-08-24T02:19:13;13.52;;;7.82;;
43184;SDS011;28803;52.308;19.096;2022-08-24T02:21:40;16.23;;;9.05;;
43184;SDS011;28803;52.308;19.096;2022-08-24T02:24:07;15.65;;;8.00;;
43184;SDS011;28803;52.308;19.096;2022-08-24T02:26:35;15.60;;;8.80;;
43184;SDS011;28803;52.308;19.096;2022-08-24T02:29:04;14.63;;;7.93;;
43184;SDS011;28803;52.308;19.096;2022-08-24T02:31:33;17.58;;;8.82;;
43184;SDS011;28803;52.308;19.096;2022-08-24T02:34:03;15.10;;;7.80;;
43184;SDS011;28803;52.308;19.096;2022-08-24T02:36:31;13.75;;;8.90;;
43184;SDS011;28803;52.308;19.096;2022-08-24T02:38:59;16.92;;;8.35;;
43184;SDS011;28803;52.308;19.096;2022-08-24T02:41:27;13.20;;;7.28;;
43184;SDS011;28803;52.308;19.096;2022-08-24T02:43:54;12.55;;;8.15;;
43184;SDS011;28803;52.308;19.096;2022-08-24T02:46:26;20.05;;;7.68;;
43184;SDS011;28803;52.308;19.096;2022-08-24T02:51:37;11.95;;;7.15;;
43184;SDS011;28803;52.308;19.096;2022-08-24T02:54:10;11.25;;;6.65;;
43184;SDS011;28803;52.308;19.096;2022-08-24T02:56:39;11.77;;;7.60;;
43184;SDS011;28803;52.308;19.096;2022-08-24T02:59:07;11.68;;;7.03;;
43184;SDS011;28803;52.308;19.096;2022-08-24T03:01:34;14.27;;;7.65;;
43184;SDS011;28803;52.308;19.096;2022-08-24T03:04:02;10.73;;;6.43;;
43184;SDS011;28803;52.308;19.096;2022-08-24T03:06:30;12.60;;;7.47;;
43184;SDS011;28803;52.308;19.096;2022-08-24T03:08:58;10.07;;;6.75;;
43184;SDS011;28803;52.308;19.096;2022-08-24T03:11:25;11.35;;;7.15;;
43184;SDS011;28803;52.308;19.096;2022-08-24T03:13:56;13.93;;;6.93;;
43184;SDS011;28803;52.308;19.096;2022-08-24T03:16:26;13.23;;;7.50;;
43184;SDS011;28803;52.308;19.096;2022-08-24T03:18:54;9.43;;;6.32;;
43184;SDS011;28803;52.308;19.096;2022-08-24T03:21:22;12.00;;;6.43;;
43184;SDS011;28803;52.308;19.096;2022-08-24T03:23:49;11.18;;;6.82;;
43184;SDS011;28803;52.308;19.096;2022-08-24T03:26:17;10.77;;;6.78;;
43184;SDS011;28803;52.308;19.096;2022-08-24T03:28:44;9.77;;;5.40;;
43184;SDS011;28803;52.308;19.096;2022-08-24T03:31:15;8.90;;;6.57;;
43184;SDS011;28803;52.308;19.096;2022-08-24T03:33:43;9.48;;;6.50;;
43184;SDS011;28803;52.308;19.096;2022-08-24T03:36:10;8.98;;;6.18;;
43184;SDS011;28803;52.308;19.096;2022-08-24T03:38:40;9.70;;;6.55;;
43184;SDS011;28803;52.308;19.096;2022-08-24T03:41:08;8.13;;;5.65;;
43184;SDS011;28803;52.308;19.096;2022-08-24T03:43:37;9.10;;;6.10;;
43184;SDS011;28803;52.308;19.096;2022-08-24T03:46:14;8.98;;;5.68;;
43184;SDS011;28803;52.308;19.096;2022-08-24T03:48:47;9.05;;;4.85;;
43184;SDS011;28803;52.308;19.096;2022-08-24T03:51:16;7.60;;;5.15;;
43184;SDS011;28803;52.308;19.096;2022-08-24T03:53:45;8.82;;;6.25;;
43184;SDS011;28803;52.308;19.096;2022-08-24T03:56:12;10.10;;;5.80;;
43184;SDS011;28803;52.308;19.096;2022-08-24T03:58:40;8.98;;;5.97;;
43184;SDS011;28803;52.308;19.096;2022-08-24T04:01:07;8.32;;;5.55;;
43184;SDS011;28803;52.308;19.096;2022-08-24T04:03:36;8.88;;;5.55;;
43184;SDS011;28803;52.308;19.096;2022-08-24T04:06:06;8.35;;;5.00;;
43184;SDS011;28803;52.308;19.096;2022-08-24T04:08:37;9.73;;;5.68;;
43184;SDS011;28803;52.308;19.096;2022-08-24T04:11:11;7.47;;;5.65;;
43184;SDS011;28803;52.308;19.096;2022-08-24T04:13:40;7.82;;;5.47;;
43184;SDS011;28803;52.308;19.096;2022-08-24T04:16:12;7.55;;;5.35;;
43184;SDS011;28803;52.308;19.096;2022-08-24T04:18:42;8.43;;;5.72;;
43184;SDS011;28803;52.308;19.096;2022-08-24T04:21:16;9.35;;;5.15;;
43184;SDS011;28803;52.308;19.096;2022-08-24T04:23:46;7.43;;;5.22;;
43184;SDS011;28803;52.308;19.096;2022-08-24T04:26:14;8.57;;;5.50;;
43184;SDS011;28803;52.308;19.096;2022-08-24T04:29:03;10.18;;;6.25;;
43184;SDS011;28803;52.308;19.096;2022-08-24T04:31:37;9.15;;;6.63;;
43184;SDS011;28803;52.308;19.096;2022-08-24T04:34:06;7.07;;;5.45;;
43184;SDS011;28803;52.308;19.096;2022-08-24T04:36:34;8.82;;;5.70;;
43184;SDS011;28803;52.308;19.096;2022-08-24T04:39:02;8.30;;;5.75;;
43184;SDS011;28803;52.308;19.096;2022-08-24T04:41:30;10.75;;;6.15;;
43184;SDS011;28803;52.308;19.096;2022-08-24T04:44:00;10.27;;;5.70;;
43184;SDS011;28803;52.308;19.096;2022-08-24T04:46:28;8.93;;;5.95;;
43184;SDS011;28803;52.308;19.096;2022-08-24T04:48:56;8.00;;;5.57;;
43184;SDS011;28803;52.308;19.096;2022-08-24T04:51:24;10.60;;;5.82;;
43184;SDS011;28803;52.308;19.096;2022-08-24T04:53:52;7.95;;;5.32;;
43184;SDS011;28803;52.308;19.096;2022-08-24T04:56:21;11.82;;;7.38;;
43184;SDS011;28803;52.308;19.096;2022-08-24T04:58:50;14.70;;;7.30;;
43184;SDS011;28803;52.308;19.096;2022-08-24T05:01:21;10.77;;;6.57;;
43184;SDS011;28803;52.308;19.096;2022-08-24T05:03:51;12.60;;;6.88;;
43184;SDS011;28803;52.308;19.096;2022-08-24T05:06:22;10.90;;;6.35;;
43184;SDS011;28803;52.308;19.096;2022-08-24T05:08:53;11.85;;;6.43;;
43184;SDS011;28803;52.308;19.096;2022-08-24T05:11:21;12.18;;;6.85;;
43184;SDS011;28803;52.308;19.096;2022-08-24T05:13:52;14.07;;;7.53;;
43184;SDS011;28803;52.308;19.096;2022-08-24T05:16:21;13.05;;;7.20;;
43184;SDS011;28803;52.308;19.096;2022-08-24T05:18:51;9.75;;;6.63;;
43184;SDS011;28803;52.308;19.096;2022-08-24T05:21:21;10.27;;;6.75;;
43184;SDS011;28803;52.308;19.096;2022-08-24T05:23:50;14.90;;;7.47;;
43184;SDS011;28803;52.308;19.096;2022-08-24T05:26:19;13.77;;;7.45;;
43184;SDS011;28803;52.308;19.096;2022-08-24T05:28:58;14.20;;;7.03;;
43184;SDS011;28803;52.308;19.096;2022-08-24T05:31:29;14.55;;;7.53;;
43184;SDS011;28803;52.308;19.096;2022-08-24T05:33:58;13.45;;;7.35;;
43184;SDS011;28803;52.308;19.096;2022-08-24T05:36:30;11.95;;;7.15;;
43184;SDS011;28803;52.308;19.096;2022-08-24T05:39:00;19.92;;;7.18;;
43184;SDS011;28803;52.308;19.096;2022-08-24T05:41:36;12.13;;;7.30;;
43184;SDS011;28803;52.308;19.096;2022-08-24T05:44:10;11.70;;;7.10;;
43184;SDS011;28803;52.308;19.096;2022-08-24T05:46:43;12.55;;;6.90;;
43184;SDS011;28803;52.308;19.096;2022-08-24T05:49:11;14.75;;;7.50;;
43184;SDS011;28803;52.308;19.096;2022-08-24T05:51:39;12.05;;;7.32;;
43184;SDS011;28803;52.308;19.096;2022-08-24T05:54:09;13.10;;;7.20;;
43184;SDS011;28803;52.308;19.096;2022-08-24T05:56:39;16.42;;;7.63;;
43184;SDS011;28803;52.308;19.096;2022-08-24T05:59:09;15.65;;;8.88;;
43184;SDS011;28803;52.308;19.096;2022-08-24T06:01:39;14.77;;;8.10;;
43184;SDS011;28803;52.308;19.096;2022-08-24T06:04:11;12.73;;;7.20;;
43184;SDS011;28803;52.308;19.096;2022-08-24T06:06:40;14.65;;;8.77;;
43184;SDS011;28803;52.308;19.096;2022-08-24T06:09:09;11.63;;;7.47;;
43184;SDS011;28803;52.308;19.096;2022-08-24T06:11:38;12.88;;;7.53;;
43184;SDS011;28803;52.308;19.096;2022-08-24T06:14:08;16.10;;;7.30;;
43184;SDS011;28803;52.308;19.096;2022-08-24T06:16:40;13.20;;;7.72;;
43184;SDS011;28803;52.308;19.096;2022-08-24T06:19:13;14.02;;;7.60;;
43184;SDS011;28803;52.308;19.096;2022-08-24T06:21:45;11.50;;;7.18;;
43184;SDS011;28803;52.308;19.096;2022-08-24T06:24:15;10.52;;;7.70;;
43184;SDS011;28803;52.308;19.096;2022-08-24T06:26:43;8.38;;;6.40;;
43184;SDS011;28803;52.308;19.096;2022-08-24T06:29:32;11.68;;;7.80;;
43184;SDS011;28803;52.308;19.096;2022-08-24T06:32:00;11.35;;;6.72;;
43184;SDS011;28803;52.308;19.096;2022-08-24T06:34:27;11.23;;;7.25;;
43184;SDS011;28803;52.308;19.096;2022-08-24T06:36:56;10.75;;;7.32;;
43184;SDS011;28803;52.308;19.096;2022-08-24T06:39:24;11.65;;;7.25;;
43184;SDS011;28803;52.308;19.096;2022-08-24T06:41:54;15.38;;;8.00;;
43184;SDS011;28803;52.308;19.096;2022-08-24T06:44:24;12.55;;;7.90;;
43184;SDS011;28803;52.308;19.096;2022-08-24T06:46:51;14.35;;;7.78;;
43184;SDS011;28803;52.308;19.096;2022-08-24T06:49:20;12.00;;;6.78;;
43184;SDS011;28803;52.308;19.096;2022-08-24T06:51:48;13.10;;;7.78;;
43184;SDS011;28803;52.308;19.096;2022-08-24T06:54:17;14.82;;;8.20;;
43184;SDS011;28803;52.308;19.096;2022-08-24T06:56:46;14.38;;;8.80;;
43184;SDS011;28803;52.308;19.096;2022-08-24T06:59:15;12.55;;;8.38;;
43184;SDS011;28803;52.308;19.096;2022-08-24T07:01:43;13.93;;;8.32;;
43184;SDS011;28803;52.308;19.096;2022-08-24T07:04:11;14.82;;;7.75;;
43184;SDS011;28803;52.308;19.096;2022-08-24T07:06:39;13.48;;;8.25;;
43184;SDS011;28803;52.308;19.096;2022-08-24T07:09:07;16.65;;;9.60;;
43184;SDS011;28803;52.308;19.096;2022-08-24T07:11:34;14.55;;;8.73;;
43184;SDS011;28803;52.308;19.096;2022-08-24T07:14:03;19.33;;;10.98;;
43184;SDS011;28803;52.308;19.096;2022-08-24T07:16:31;18.38;;;10.45;;
43184;SDS011;28803;52.308;19.096;2022-08-24T07:19:00;17.50;;;10.75;;
43184;SDS011;28803;52.308;19.096;2022-08-24T07:21:31;16.38;;;9.65;;
43184;SDS011;28803;52.308;19.096;2022-08-24T07:24:00;18.88;;;11.68;;
43184;SDS011;28803;52.308;19.096;2022-08-24T07:26:29;22.45;;;12.90;;
43184;SDS011;28803;52.308;19.096;2022-08-24T07:29:02;20.40;;;13.35;;
43184;SDS011;28803;52.308;19.096;2022-08-24T07:31:33;18.08;;;12.35;;
43184;SDS011;28803;52.308;19.096;2022-08-24T07:34:04;19.35;;;12.50;;
43184;SDS011;28803;52.308;19.096;2022-08-24T07:36:34;16.90;;;11.52;;
43184;SDS011;28803;52.308;19.096;2022-08-24T07:39:10;11.98;;;9.45;;
43184;SDS011;28803;52.308;19.096;2022-08-24T07:41:38;17.25;;;12.40;;
43184;SDS011;28803;52.308;19.096;2022-08-24T07:44:28;15.70;;;11.48;;
43184;SDS011;28803;52.308;19.096;2022-08-24T07:46:57;15.75;;;11.32;;
43184;SDS011;28803;52.308;19.096;2022-08-24T07:49:41;18.38;;;11.10;;
43184;SDS011;28803;52.308;19.096;2022-08-24T07:52:09;12.80;;;10.10;;
43184;SDS011;28803;52.308;19.096;2022-08-24T07:54:37;14.48;;;10.77;;
43184;SDS011;28803;52.308;19.096;2022-08-24T07:57:06;13.43;;;10.13;;
43184;SDS011;28803;52.308;19.096;2022-08-24T07:59:34;11.25;;;8.63;;
43184;SDS011;28803;52.308;19.096;2022-08-24T08:02:02;13.43;;;10.15;;
43184;SDS011;28803;52.308;19.096;2022-08-24T08:04:30;13.82;;;10.55;;
43184;SDS011;28803;52.308;19.096;2022-08-24T08:06:58;16.48;;;10.27;;
43184;SDS011;28803;52.308;19.096;2022-08-24T08:09:29;14.60;;;10.13;;
43184;SDS011;28803;52.308;19.096;2022-08-24T08:11:57;13.75;;;9.90;;
43184;SDS011;28803;52.308;19.096;2022-08-24T08:14:25;12.00;;;9.80;;
43184;SDS011;28803;52.308;19.096;2022-08-24T08:16:53;16.05;;;11.48;;
43184;SDS011;28803;52.308;19.096;2022-08-24T08:19:22;13.13;;;9.45;;
43184;SDS011;28803;52.308;19.096;2022-08-24T08:21:50;12.05;;;9.25;;
43184;SDS011;28803;52.308;19.096;2022-08-24T08:24:38;16.90;;;8.57;;
43184;SDS011;28803;52.308;19.096;2022-08-24T08:27:11;10.82;;;7.75;;
43184;SDS011;28803;52.308;19.096;2022-08-24T08:29:41;11.75;;;8.05;;
43184;SDS011;28803;52.308;19.096;2022-08-24T08:32:09;9.20;;;7.60;;
43184;SDS011;28803;52.308;19.096;2022-08-24T08:34:48;12.43;;;9.15;;
43184;SDS011;28803;52.308;19.096;2022-08-24T08:37:16;10.73;;;7.35;;
43184;SDS011;28803;52.308;19.096;2022-08-24T08:39:44;12.10;;;7.53;;
43184;SDS011;28803;52.308;19.096;2022-08-24T08:56:44;7.63;;;5.95;;
43184;SDS011;28803;52.308;19.096;2022-08-24T08:59:39;9.88;;;6.57;;
43184;SDS011;28803;52.308;19.096;2022-08-24T09:11:38;6.43;;;4.65;;
43184;SDS011;28803;52.308;19.096;2022-08-24T09:22:55;4.70;;;3.55;;
43184;SDS011;28803;52.308;19.096;2022-08-24T09:29:15;5.18;;;3.35;;
43184;SDS011;28803;52.308;19.096;2022-08-24T09:31:46;5.38;;;3.30;;
43184;SDS011;28803;52.308;19.096;2022-08-24T09:34:33;4.32;;;2.97;;
43184;SDS011;28803;52.308;19.096;2022-08-24T09:46:06;6.22;;;3.80;;
43184;SDS011;28803;52.308;19.096;2022-08-24T10:00:15;6.07;;;2.95;;
43184;SDS011;28803;52.308;19.096;2022-08-24T10:13:39;4.15;;;3.15;;
43184;SDS011;28803;52.308;19.096;2022-08-24T10:16:21;5.93;;;3.17;;
43184;SDS011;28803;52.308;19.096;2022-08-24T10:19:13;4.70;;;3.33;;
43184;SDS011;28803;52.308;19.096;2022-08-24T10:24:39;5.55;;;2.70;;
43184;SDS011;28803;52.308;19.096;2022-08-24T10:30:16;4.47;;;2.88;;
43184;SDS011;28803;52.308;19.096;2022-08-24T10:38:48;5.38;;;3.75;;
43184;SDS011;28803;52.308;19.096;2022-08-24T10:42:03;4.93;;;3.33;;
43184;SDS011;28803;52.308;19.096;2022-08-24T10:53:57;6.72;;;3.22;;
43184;SDS011;28803;52.308;19.096;2022-08-24T10:59:16;7.22;;;3.03;;
43184;SDS011;28803;52.308;19.096;2022-08-24T11:02:41;5.30;;;3.50;;
43184;SDS011;28803;52.308;19.096;2022-08-24T11:04:56;6.43;;;3.15;;
43184;SDS011;28803;52.308;19.096;2022-08-24T11:07:28;6.60;;;3.40;;
43184;SDS011;28803;52.308;19.096;2022-08-24T11:09:58;4.45;;;3.00;;
43184;SDS011;28803;52.308;19.096;2022-08-24T11:12:39;14.93;;;3.05;;
43184;SDS011;28803;52.308;19.096;2022-08-24T11:15:18;4.88;;;2.75;;
43184;SDS011;28803;52.308;19.096;2022-08-24T11:20:26;4.75;;;2.72;;
43184;SDS011;28803;52.308;19.096;2022-08-24T11:23:09;3.65;;;2.72;;
43184;SDS011;28803;52.308;19.096;2022-08-24T11:25:42;5.93;;;3.88;;
43184;SDS011;28803;52.308;19.096;2022-08-24T11:28:40;5.72;;;3.38;;
43184;SDS011;28803;52.308;19.096;2022-08-24T11:31:18;10.30;;;3.38;;
43184;SDS011;28803;52.308;19.096;2022-08-24T11:34:01;4.82;;;2.95;;
43184;SDS011;28803;52.308;19.096;2022-08-24T11:36:33;5.07;;;2.75;;
43184;SDS011;28803;52.308;19.096;2022-08-24T11:44:41;8.98;;;3.00;;
43184;SDS011;28803;52.308;19.096;2022-08-24T11:50:22;5.78;;;2.72;;
43184;SDS011;28803;52.308;19.096;2022-08-24T11:55:50;5.07;;;3.20;;
43184;SDS011;28803;52.308;19.096;2022-08-24T12:01:31;5.30;;;3.30;;
43184;SDS011;28803;52.308;19.096;2022-08-24T12:07:09;6.25;;;2.88;;
43184;SDS011;28803;52.308;19.096;2022-08-24T12:12:21;5.47;;;2.83;;
43184;SDS011;28803;52.308;19.096;2022-08-24T12:15:10;6.35;;;3.03;;
43184;SDS011;28803;52.308;19.096;2022-08-24T12:17:51;4.18;;;2.30;;
43184;SDS011;28803;52.308;19.096;2022-08-24T12:20:32;8.55;;;2.33;;
43184;SDS011;28803;52.308;19.096;2022-08-24T12:23:12;3.70;;;2.38;;
43184;SDS011;28803;52.308;19.096;2022-08-24T12:26:14;5.35;;;2.90;;
43184;SDS011;28803;52.308;19.096;2022-08-24T12:28:55;5.13;;;2.33;;
43184;SDS011;28803;52.308;19.096;2022-08-24T12:31:41;4.82;;;3.15;;
43184;SDS011;28803;52.308;19.096;2022-08-24T12:37:32;4.72;;;2.15;;
43184;SDS011;28803;52.308;19.096;2022-08-24T12:42:57;15.63;;;2.80;;
43184;SDS011;28803;52.308;19.096;2022-08-24T12:45:32;3.67;;;2.20;;
43184;SDS011;28803;52.308;19.096;2022-08-24T12:56:33;9.00;;;3.03;;
43184;SDS011;28803;52.308;19.096;2022-08-24T13:17:46;3.92;;;2.30;;
43184;SDS011;28803;52.308;19.096;2022-08-24T13:33:46;6.97;;;1.85;;
43184;SDS011;28803;52.308;19.096;2022-08-24T13:36:36;4.32;;;2.22;;
43184;SDS011;28803;52.308;19.096;2022-08-24T13:42:15;4.50;;;2.13;;
43184;SDS011;28803;52.308;19.096;2022-08-24T13:56:53;6.00;;;2.13;;
43184;SDS011;28803;52.308;19.096;2022-08-24T14:06:02;3.42;;;1.80;;
43184;SDS011;28803;52.308;19.096;2022-08-24T14:11:19;11.57;;;2.55;;
43184;SDS011;28803;52.308;19.096;2022-08-24T14:17:10;7.25;;;2.40;;
43184;SDS011;28803;52.308;19.096;2022-08-24T14:34:38;3.28;;;1.98;;
43184;SDS011;28803;52.308;19.096;2022-08-24T14:37:22;6.03;;;2.20;;
43184;SDS011;28803;52.308;19.096;2022-08-24T14:48:31;9.43;;;3.40;;
43184;SDS011;28803;52.308;19.096;2022-08-24T14:59:44;4.25;;;2.30;;
43184;SDS011;28803;52.308;19.096;2022-08-24T15:02:43;3.90;;;2.50;;
43184;SDS011;28803;52.308;19.096;2022-08-24T15:05:20;7.28;;;2.90;;
43184;SDS011;28803;52.308;19.096;2022-08-24T15:08:06;6.43;;;3.33;;
43184;SDS011;28803;52.308;19.096;2022-08-24T15:16:11;8.90;;;3.03;;
43184;SDS011;28803;52.308;19.096;2022-08-24T15:24:11;5.43;;;2.55;;
43184;SDS011;28803;52.308;19.096;2022-08-24T15:29:34;7.70;;;2.58;;
43184;SDS011;28803;52.308;19.096;2022-08-24T15:32:18;6.43;;;2.42;;
43184;SDS011;28803;52.308;19.096;2022-08-24T15:34:55;7.40;;;2.83;;
43184;SDS011;28803;52.308;19.096;2022-08-24T15:37:29;8.30;;;2.80;;
43184;SDS011;28803;52.308;19.096;2022-08-24T15:40:20;9.77;;;3.08;;
43184;SDS011;28803;52.308;19.096;2022-08-24T15:42:59;3.13;;;1.50;;
43184;SDS011;28803;52.308;19.096;2022-08-24T15:45:33;8.40;;;3.92;;
43184;SDS011;28803;52.308;19.096;2022-08-24T15:48:04;5.88;;;2.95;;
43184;SDS011;28803;52.308;19.096;2022-08-24T15:50:34;4.07;;;2.13;;
43184;SDS011;28803;52.308;19.096;2022-08-24T15:56:23;4.40;;;2.35;;
43184;SDS011;28803;52.308;19.096;2022-08-24T15:59:08;8.98;;;2.78;;
43184;SDS011;28803;52.308;19.096;2022-08-24T16:01:38;5.20;;;2.40;;
43184;SDS011;28803;52.308;19.096;2022-08-24T16:04:40;10.52;;;2.63;;
43184;SDS011;28803;52.308;19.096;2022-08-24T16:07:15;4.35;;;1.85;;
43184;SDS011;28803;52.308;19.096;2022-08-24T16:09:59;11.15;;;3.10;;
43184;SDS011;28803;52.308;19.096;2022-08-24T16:12:32;6.80;;;2.50;;
43184;SDS011;28803;52.308;19.096;2022-08-24T16:15:10;3.58;;;2.42;;
43184;SDS011;28803;52.308;19.096;2022-08-24T16:17:44;5.10;;;2.33;;
43184;SDS011;28803;52.308;19.096;2022-08-24T16:20:28;6.15;;;3.03;;
43184;SDS011;28803;52.308;19.096;2022-08-24T16:23:03;11.20;;;2.67;;
43184;SDS011;28803;52.308;19.096;2022-08-24T16:25:41;11.85;;;2.75;;
43184;SDS011;28803;52.308;19.096;2022-08-24T16:30:52;10.50;;;2.80;;
43184;SDS011;28803;52.308;19.096;2022-08-24T16:35:58;6.38;;;2.85;;
43184;SDS011;28803;52.308;19.096;2022-08-24T16:38:29;8.25;;;2.97;;
43184;SDS011;28803;52.308;19.096;2022-08-24T16:41:01;5.57;;;2.33;;
43184;SDS011;28803;52.308;19.096;2022-08-24T16:43:33;10.88;;;3.00;;
43184;SDS011;28803;52.308;19.096;2022-08-24T16:46:03;6.30;;;2.40;;
43184;SDS011;28803;52.308;19.096;2022-08-24T16:48:33;4.18;;;2.20;;
43184;SDS011;28803;52.308;19.096;2022-08-24T16:51:01;10.00;;;2.60;;
43184;SDS011;28803;52.308;19.096;2022-08-24T16:53:30;8.43;;;3.22;;
43184;SDS011;28803;52.308;19.096;2022-08-24T16:55:59;12.23;;;2.95;;
43184;SDS011;28803;52.308;19.096;2022-08-24T16:58:29;6.65;;;2.88;;
43184;SDS011;28803;52.308;19.096;2022-08-24T17:00:59;10.52;;;3.00;;
43184;SDS011;28803;52.308;19.096;2022-08-24T17:03:28;8.15;;;2.42;;
43184;SDS011;28803;52.308;19.096;2022-08-24T17:05:56;5.03;;;2.00;;
43184;SDS011;28803;52.308;19.096;2022-08-24T17:08:24;10.23;;;2.55;;
43184;SDS011;28803;52.308;19.096;2022-08-24T17:10:54;5.53;;;2.13;;
43184;SDS011;28803;52.308;19.096;2022-08-24T17:13:22;4.85;;;2.55;;
43184;SDS011;28803;52.308;19.096;2022-08-24T17:16:13;7.63;;;1.80;;
43184;SDS011;28803;52.308;19.096;2022-08-24T17:18:41;6.45;;;2.80;;
43184;SDS011;28803;52.308;19.096;2022-08-24T17:21:09;6.10;;;2.00;;
43184;SDS011;28803;52.308;19.096;2022-08-24T17:23:40;5.10;;;1.77;;
43184;SDS011;28803;52.308;19.096;2022-08-24T17:26:10;4.97;;;1.92;;
43184;SDS011;28803;52.308;19.096;2022-08-24T17:28:48;7.95;;;2.53;;
43184;SDS011;28803;52.308;19.096;2022-08-24T17:31:18;5.70;;;1.95;;
43184;SDS011;28803;52.308;19.096;2022-08-24T17:33:46;4.72;;;2.20;;
43184;SDS011;28803;52.308;19.096;2022-08-24T17:36:23;11.45;;;2.85;;
43184;SDS011;28803;52.308;19.096;2022-08-24T17:38:58;8.30;;;2.95;;
43184;SDS011;28803;52.308;19.096;2022-08-24T17:41:29;14.70;;;3.60;;
43184;SDS011;28803;52.308;19.096;2022-08-24T17:43:58;6.30;;;1.90;;
43184;SDS011;28803;52.308;19.096;2022-08-24T17:46:27;11.55;;;3.22;;
43184;SDS011;28803;52.308;19.096;2022-08-24T17:48:56;15.57;;;3.42;;
43184;SDS011;28803;52.308;19.096;2022-08-24T17:51:25;5.97;;;2.45;;
43184;SDS011;28803;52.308;19.096;2022-08-24T17:53:53;8.88;;;2.47;;
43184;SDS011;28803;52.308;19.096;2022-08-24T17:56:29;11.55;;;2.50;;
43184;SDS011;28803;52.308;19.096;2022-08-24T17:59:09;12.80;;;3.38;;
43184;SDS011;28803;52.308;19.096;2022-08-24T18:01:46;13.60;;;4.22;;
43184;SDS011;28803;52.308;19.096;2022-08-24T18:04:18;10.77;;;4.35;;
43184;SDS011;28803;52.308;19.096;2022-08-24T18:06:47;11.75;;;4.15;;
43184;SDS011;28803;52.308;19.096;2022-08-24T18:09:26;9.55;;;3.70;;
43184;SDS011;28803;52.308;19.096;2022-08-24T18:12:03;12.95;;;3.38;;
43184;SDS011;28803;52.308;19.096;2022-08-24T18:14:34;7.43;;;3.78;;
43184;SDS011;28803;52.308;19.096;2022-08-24T18:17:03;13.00;;;3.90;;
43184;SDS011;28803;52.308;19.096;2022-08-24T18:19:35;11.10;;;3.63;;
43184;SDS011;28803;52.308;19.096;2022-08-24T18:22:05;10.10;;;4.40;;
43184;SDS011;28803;52.308;19.096;2022-08-24T18:24:34;10.73;;;5.05;;
43184;SDS011;28803;52.308;19.096;2022-08-24T18:27:04;13.00;;;6.30;;
43184;SDS011;28803;52.308;19.096;2022-08-24T18:32:05;12.07;;;5.25;;
43184;SDS011;28803;52.308;19.096;2022-08-24T18:34:33;7.65;;;3.55;;
43184;SDS011;28803;52.308;19.096;2022-08-24T18:37:01;8.75;;;4.18;;
43184;SDS011;28803;52.308;19.096;2022-08-24T18:39:28;8.60;;;4.18;;
43184;SDS011;28803;52.308;19.096;2022-08-24T18:41:56;10.30;;;4.07;;
43184;SDS011;28803;52.308;19.096;2022-08-24T18:44:25;8.52;;;3.20;;
43184;SDS011;28803;52.308;19.096;2022-08-24T18:46:57;10.52;;;3.40;;
43184;SDS011;28803;52.308;19.096;2022-08-24T18:49:25;10.77;;;3.50;;
43184;SDS011;28803;52.308;19.096;2022-08-24T18:51:54;10.00;;;2.70;;
43184;SDS011;28803;52.308;19.096;2022-08-24T18:54:23;4.22;;;2.60;;
43184;SDS011;28803;52.308;19.096;2022-08-24T18:56:54;9.30;;;2.40;;
43184;SDS011;28803;52.308;19.096;2022-08-24T18:59:22;5.38;;;2.58;;
43184;SDS011;28803;52.308;19.096;2022-08-24T19:01:50;7.57;;;3.00;;
43184;SDS011;28803;52.308;19.096;2022-08-24T19:04:43;6.35;;;3.08;;